createdAt,value
2018-11-14T00:00:21.829Z,11.33
2018-11-14T00:02:50.381Z,10.35
2018-11-14T00:05:18.590Z,11.93
2018-11-14T00:07:46.843Z,12.37
2018-11-14T00:10:15.099Z,11.65
2018-11-14T00:12:43.317Z,14.05
2018-11-14T00:15:13.616Z,12.53
2018-11-14T00:17:42.892Z,13.05
2018-11-14T00:20:11.767Z,11.63
2018-11-14T00:22:41.086Z,11.38
2018-11-14T00:25:09.295Z,11.25
2018-11-14T00:27:37.569Z,9.95
2018-11-14T00:30:08.202Z,13.88
2018-11-14T00:32:36.392Z,11.40
2018-11-14T00:35:04.798Z,11.70
2018-11-14T00:37:32.997Z,10.08
2018-11-14T00:40:01.208Z,10.63
2018-11-14T00:42:29.410Z,10.68
2018-11-14T00:44:57.632Z,9.53
2018-11-14T00:47:25.827Z,10.50
2018-11-14T00:49:54.069Z,11.10
2018-11-14T00:52:22.361Z,11.97
2018-11-14T00:54:50.613Z,11.05
2018-11-14T00:57:18.802Z,11.00
2018-11-14T00:59:47.039Z,11.40
2018-11-14T01:02:15.286Z,12.40
2018-11-14T01:04:43.510Z,12.35
2018-11-14T01:07:11.745Z,11.30
2018-11-14T01:09:40.011Z,10.18
2018-11-14T01:12:08.266Z,10.90
2018-11-14T01:14:36.546Z,8.95
2018-11-14T01:17:05.467Z,10.95
2018-11-14T01:19:33.689Z,10.23
2018-11-14T01:22:01.965Z,10.38
2018-11-14T01:24:30.168Z,10.10
2018-11-14T01:26:58.474Z,11.65
2018-11-14T01:29:26.642Z,11.90
2018-11-14T01:31:54.870Z,11.48
2018-11-14T01:34:23.086Z,10.78
2018-11-14T01:36:51.321Z,11.00
2018-11-14T01:39:19.550Z,10.10
2018-11-14T01:41:47.783Z,10.88
2018-11-14T01:44:16.103Z,10.85
2018-11-14T01:46:44.352Z,11.78
2018-11-14T01:49:12.609Z,10.40
2018-11-14T01:51:40.830Z,10.90
2018-11-14T01:54:09.148Z,10.75
2018-11-14T01:56:37.432Z,10.58
2018-11-14T01:59:05.702Z,10.43
2018-11-14T02:01:33.995Z,10.75
2018-11-14T02:04:02.219Z,10.10
2018-11-14T02:06:30.478Z,10.68
2018-11-14T02:08:58.706Z,10.60
2018-11-14T02:11:26.949Z,9.80
2018-11-14T02:13:55.189Z,9.53
2018-11-14T02:16:23.406Z,9.53
2018-11-14T02:18:51.702Z,9.80
2018-11-14T02:21:19.972Z,9.35
2018-11-14T02:23:48.306Z,10.63
2018-11-14T02:26:16.566Z,9.00
2018-11-14T02:28:44.809Z,8.95
2018-11-14T02:31:13.055Z,9.85
2018-11-14T02:33:41.262Z,9.93
2018-11-14T02:36:09.494Z,8.53
2018-11-14T02:38:37.715Z,8.65
2018-11-14T02:41:07.470Z,8.80
2018-11-14T02:43:35.715Z,8.18
2018-11-14T02:46:03.955Z,8.95
2018-11-14T02:48:32.213Z,8.30
2018-11-14T02:51:11.907Z,9.40
2018-11-14T02:53:40.396Z,9.50
2018-11-14T02:56:10.589Z,8.40
2018-11-14T02:58:39.106Z,10.08
2018-11-14T03:01:07.830Z,9.10
2018-11-14T03:03:36.069Z,8.83
2018-11-14T03:06:04.307Z,10.00
2018-11-14T03:08:32.674Z,11.97
2018-11-14T03:11:00.898Z,16.67
2018-11-14T03:13:29.108Z,12.20
2018-11-14T03:15:57.318Z,10.65
2018-11-14T03:18:25.542Z,10.08
2018-11-14T03:20:53.754Z,12.37
2018-11-14T03:23:21.990Z,13.00
2018-11-14T03:25:50.182Z,13.78
2018-11-14T03:28:18.403Z,15.75
2018-11-14T03:30:46.609Z,19.20
2018-11-14T03:33:14.830Z,23.65
2018-11-14T03:35:48.536Z,13.88
2018-11-14T03:38:16.797Z,17.30
2018-11-14T03:40:45.029Z,14.03
2018-11-14T03:43:13.311Z,15.08
2018-11-14T03:45:41.552Z,13.60
2018-11-14T03:48:09.754Z,15.78
2018-11-14T03:50:37.938Z,12.58
2018-11-14T03:53:06.551Z,14.53
2018-11-14T03:55:35.345Z,15.68
2018-11-14T03:58:03.754Z,14.58
2018-11-14T04:00:32.056Z,15.15
2018-11-14T04:03:00.283Z,14.43
2018-11-14T04:05:28.562Z,14.75
2018-11-14T04:07:56.728Z,13.62
2018-11-14T04:10:24.967Z,15.20
2018-11-14T04:12:53.239Z,14.18
2018-11-14T04:15:21.511Z,13.32
2018-11-14T04:17:49.742Z,12.40
2018-11-14T04:20:18.355Z,13.25
2018-11-14T04:22:47.262Z,14.83
2018-11-14T04:25:17.778Z,13.50
2018-11-14T04:27:46.741Z,11.43
2018-11-14T04:30:16.535Z,12.53
2018-11-14T04:32:44.857Z,12.95
2018-11-14T04:35:14.317Z,13.60
2018-11-14T04:37:42.554Z,14.00
2018-11-14T04:40:12.764Z,12.65
2018-11-14T04:42:41.038Z,14.58
2018-11-14T04:45:11.349Z,13.70
2018-11-14T04:47:39.566Z,12.43
2018-11-14T04:50:09.690Z,13.60
2018-11-14T04:52:37.950Z,13.32
2018-11-14T04:55:07.663Z,14.50
2018-11-14T04:57:35.904Z,13.83
2018-11-14T05:00:04.508Z,14.80
2018-11-14T05:02:32.821Z,17.35
2018-11-14T05:05:01.039Z,14.00
2018-11-14T05:07:29.300Z,15.50
2018-11-14T05:09:57.540Z,13.58
2018-11-14T05:12:25.782Z,14.47
2018-11-14T05:14:54.147Z,13.53
2018-11-14T05:17:22.431Z,13.58
2018-11-14T05:19:50.748Z,14.10
2018-11-14T05:22:19.017Z,15.93
2018-11-14T05:24:47.344Z,15.35
2018-11-14T05:27:15.512Z,14.10
2018-11-14T05:29:43.789Z,14.50
2018-11-14T05:32:12.043Z,15.05
2018-11-14T05:34:40.281Z,14.45
2018-11-14T05:37:08.533Z,14.63
2018-11-14T05:39:36.848Z,14.30
2018-11-14T05:42:05.123Z,12.07
2018-11-14T05:44:33.426Z,12.28
2018-11-14T05:47:01.740Z,12.53
2018-11-14T05:49:29.994Z,12.10
2018-11-14T05:51:58.229Z,11.70
2018-11-14T05:54:26.479Z,11.38
2018-11-14T05:56:54.745Z,10.93
2018-11-14T05:59:23.015Z,11.55
2018-11-14T06:01:51.301Z,12.03
2018-11-14T06:04:19.549Z,12.98
2018-11-14T06:06:47.776Z,11.25
2018-11-14T06:09:16.015Z,11.90
2018-11-14T06:11:44.274Z,11.78
2018-11-14T06:14:12.493Z,12.53
2018-11-14T06:16:40.730Z,11.93
2018-11-14T06:19:08.990Z,11.80
2018-11-14T06:21:37.215Z,12.78
2018-11-14T06:24:05.483Z,11.18
2018-11-14T06:26:33.782Z,10.68
2018-11-14T06:29:02.018Z,10.45
2018-11-14T06:31:30.308Z,10.25
2018-11-14T06:33:58.558Z,11.38
2018-11-14T06:36:26.816Z,11.30
2018-11-14T06:38:55.051Z,9.23
2018-11-14T06:41:23.371Z,11.28
2018-11-14T06:43:51.616Z,10.75
2018-11-14T06:46:19.839Z,9.45
2018-11-14T06:48:48.141Z,11.40
2018-11-14T06:51:16.412Z,11.88
2018-11-14T06:53:44.709Z,12.40
2018-11-14T06:56:13.095Z,13.93
2018-11-14T06:58:41.400Z,10.18
2018-11-14T07:01:09.634Z,11.48
2018-11-14T07:03:37.863Z,12.70
2018-11-14T07:06:06.338Z,12.93
2018-11-14T07:08:34.406Z,11.25
2018-11-14T07:11:02.727Z,12.95
2018-11-14T07:13:30.974Z,13.43
2018-11-14T07:15:59.258Z,13.15
2018-11-14T07:18:27.570Z,11.88
2018-11-14T07:20:55.816Z,12.85
2018-11-14T07:23:24.194Z,10.80
2018-11-14T07:25:52.493Z,12.43
2018-11-14T07:28:20.764Z,11.28
2018-11-14T07:30:49.081Z,12.70
2018-11-14T07:33:17.420Z,12.25
2018-11-14T07:35:45.671Z,12.07
2018-11-14T07:38:47.728Z,13.28
2018-11-14T07:41:26.190Z,15.00
2018-11-14T07:43:54.498Z,15.20
2018-11-14T07:46:23.434Z,13.90
2018-11-14T07:48:51.956Z,11.97
2018-11-14T07:51:20.290Z,10.95
2018-11-14T07:53:48.514Z,13.38
2018-11-14T07:56:16.722Z,12.30
2018-11-14T07:58:44.962Z,12.53
2018-11-14T08:01:13.394Z,12.20
2018-11-14T08:03:41.617Z,11.83
2018-11-14T08:06:09.854Z,11.60
2018-11-14T08:08:38.120Z,12.05
2018-11-14T08:11:07.071Z,11.55
2018-11-14T08:13:36.163Z,11.03
2018-11-14T08:16:04.665Z,11.68
2018-11-14T08:18:32.967Z,11.33
2018-11-14T08:21:02.109Z,12.93
2018-11-14T08:23:30.318Z,11.48
2018-11-14T08:25:58.610Z,12.25
2018-11-14T08:28:26.960Z,11.57
2018-11-14T08:30:55.165Z,9.03
2018-11-14T08:33:23.491Z,10.82
2018-11-14T08:35:51.752Z,10.08
2018-11-14T08:38:19.991Z,8.68
2018-11-14T08:40:48.252Z,10.68
2018-11-14T08:43:16.454Z,11.65
2018-11-14T08:45:44.707Z,10.28
2018-11-14T08:48:12.942Z,10.80
2018-11-14T08:50:41.188Z,10.05
2018-11-14T08:53:10.218Z,12.33
2018-11-14T08:55:38.445Z,11.18
2018-11-14T08:58:08.937Z,10.50
2018-11-14T09:00:37.096Z,11.22
2018-11-14T09:03:06.729Z,11.28
2018-11-14T09:05:34.956Z,12.20
2018-11-14T09:08:03.231Z,10.70
2018-11-14T09:10:31.468Z,10.48
2018-11-14T09:12:59.792Z,10.58
2018-11-14T09:15:27.944Z,10.60
2018-11-14T09:17:56.164Z,9.93
2018-11-14T09:20:25.967Z,9.28
2018-11-14T09:22:54.203Z,9.48
2018-11-14T09:25:24.646Z,9.50
2018-11-14T09:27:52.859Z,10.90
2018-11-14T09:30:22.158Z,10.08
2018-11-14T09:32:50.372Z,8.78
2018-11-14T09:35:19.835Z,9.20
2018-11-14T09:37:48.026Z,9.55
2018-11-14T09:40:17.733Z,9.65
2018-11-14T09:42:45.967Z,10.45
2018-11-14T09:45:15.527Z,11.60
2018-11-14T09:47:43.737Z,10.00
2018-11-14T09:50:21.874Z,9.60
2018-11-14T09:52:55.769Z,10.53
2018-11-14T09:55:23.956Z,10.53
2018-11-14T09:57:52.191Z,9.95
2018-11-14T10:00:24.753Z,9.53
2018-11-14T10:02:54.816Z,10.38
2018-11-14T10:05:23.751Z,9.80
2018-11-14T10:07:52.026Z,9.98
2018-11-14T10:10:21.222Z,10.82
2018-11-14T10:12:49.513Z,11.20
2018-11-14T10:15:19.843Z,13.68
2018-11-14T10:17:48.532Z,13.72
2018-11-14T10:20:19.959Z,13.68
2018-11-14T10:22:48.207Z,10.70
2018-11-14T10:25:17.247Z,10.82
2018-11-14T10:27:46.036Z,11.35
2018-11-14T10:30:19.458Z,12.07
2018-11-14T10:32:48.423Z,12.58
2018-11-14T10:35:16.691Z,13.53
2018-11-14T10:37:45.179Z,15.45
2018-11-14T10:40:17.459Z,14.03
2018-11-14T10:42:45.852Z,13.80
2018-11-14T10:45:17.487Z,14.40
2018-11-14T10:47:45.803Z,12.60
2018-11-14T10:50:16.531Z,13.88
2018-11-14T10:52:44.877Z,23.45
2018-11-14T10:55:14.107Z,15.28
2018-11-14T10:57:42.389Z,15.10
2018-11-14T11:00:21.149Z,14.13
2018-11-14T11:02:54.830Z,14.53
2018-11-14T11:05:28.614Z,14.15
2018-11-14T11:08:02.303Z,14.00
2018-11-14T11:10:35.946Z,12.70
2018-11-14T11:13:09.627Z,12.03
2018-11-14T11:15:43.278Z,17.27
2018-11-14T11:18:14.159Z,14.58
2018-11-14T11:20:42.743Z,15.15
2018-11-14T11:23:11.048Z,15.40
2018-11-14T11:25:39.537Z,14.20
2018-11-14T11:28:07.924Z,15.40
2018-11-14T11:30:36.386Z,16.00
2018-11-14T11:33:05.833Z,13.75
2018-11-14T11:35:34.134Z,14.98
2018-11-14T11:38:02.501Z,19.30
2018-11-14T11:40:31.048Z,19.12
2018-11-14T11:42:59.312Z,19.00
2018-11-14T11:45:27.580Z,16.48
2018-11-14T11:47:55.818Z,13.20
2018-11-14T11:50:24.317Z,15.60
2018-11-14T11:52:52.544Z,15.15
2018-11-14T11:55:20.822Z,12.30
2018-11-14T11:57:49.099Z,12.43
2018-11-14T12:00:17.510Z,13.00
2018-11-14T12:02:45.621Z,12.55
2018-11-14T12:05:14.573Z,13.58
2018-11-14T12:07:43.261Z,13.32
2018-11-14T12:10:13.097Z,12.37
2018-11-14T12:12:42.229Z,12.58
2018-11-14T12:15:11.636Z,13.45
2018-11-14T12:17:40.580Z,12.18
2018-11-14T12:20:09.975Z,12.25
2018-11-14T12:22:39.179Z,13.88
2018-11-14T12:25:08.955Z,13.60
2018-11-14T12:27:37.281Z,12.90
2018-11-14T12:30:08.858Z,14.40
2018-11-14T12:32:36.976Z,14.15
2018-11-14T12:35:06.838Z,13.45
2018-11-14T12:37:35.011Z,16.95
2018-11-14T12:40:03.250Z,14.98
2018-11-14T12:42:31.629Z,15.88
2018-11-14T12:44:59.865Z,14.93
2018-11-14T12:47:28.321Z,14.18
2018-11-14T12:49:56.530Z,14.28
2018-11-14T12:52:24.811Z,15.88
2018-11-14T12:54:52.999Z,17.07
2018-11-14T12:57:21.215Z,14.25
2018-11-14T12:59:49.479Z,14.00
2018-11-14T13:02:17.654Z,14.45
2018-11-14T13:04:45.935Z,16.17
2018-11-14T13:07:14.134Z,14.33
2018-11-14T13:09:42.335Z,14.70
2018-11-14T13:12:10.603Z,18.85
2018-11-14T13:14:38.842Z,17.95
2018-11-14T13:17:07.129Z,18.25
2018-11-14T13:19:35.446Z,26.62
2018-11-14T13:22:03.756Z,26.90
2018-11-14T13:24:32.048Z,23.12
2018-11-14T13:27:00.645Z,16.70
2018-11-14T13:29:29.258Z,16.20
2018-11-14T13:31:57.498Z,15.40
2018-11-14T13:34:26.099Z,15.90
2018-11-14T13:36:54.352Z,15.80
2018-11-14T13:39:22.736Z,13.15
2018-11-14T13:41:50.956Z,12.93
2018-11-14T13:44:19.224Z,10.70
2018-11-14T13:46:47.458Z,12.95
2018-11-14T13:49:15.920Z,11.55
2018-11-14T13:51:44.011Z,13.32
2018-11-14T13:54:12.271Z,11.65
2018-11-14T13:56:40.526Z,12.30
2018-11-14T13:59:08.734Z,12.28
2018-11-14T14:01:37.005Z,12.05
2018-11-14T14:04:05.370Z,12.73
2018-11-14T14:06:33.603Z,13.38
2018-11-14T14:09:01.818Z,13.45
2018-11-14T14:11:30.120Z,13.22
2018-11-14T14:14:03.778Z,11.65
2018-11-14T14:16:32.076Z,10.85
2018-11-14T14:19:00.237Z,10.55
2018-11-14T14:21:28.521Z,13.70
2018-11-14T14:23:56.722Z,11.93
2018-11-14T14:26:25.010Z,11.90
2018-11-14T14:28:53.243Z,13.10
2018-11-14T14:31:21.455Z,13.28
2018-11-14T14:33:49.647Z,13.38
2018-11-14T14:36:17.902Z,14.33
2018-11-14T14:38:46.118Z,13.30
2018-11-14T14:41:14.342Z,14.20
2018-11-14T14:43:42.598Z,14.95
2018-11-14T14:46:10.790Z,13.48
2018-11-14T14:48:39.042Z,14.00
2018-11-14T14:51:07.248Z,15.58
2018-11-14T14:53:35.493Z,14.70
2018-11-14T14:56:03.698Z,15.28
2018-11-14T14:58:31.946Z,20.15
2018-11-14T15:01:00.205Z,22.93
2018-11-14T15:03:28.487Z,21.00
2018-11-14T15:05:58.854Z,20.95
2018-11-14T15:08:27.085Z,19.98
2018-11-14T15:10:55.354Z,23.02
2018-11-14T15:13:23.669Z,17.17
2018-11-14T15:15:51.990Z,16.37
2018-11-14T15:18:20.327Z,16.57
2018-11-14T15:20:48.563Z,16.52
2018-11-14T15:23:16.959Z,15.90
2018-11-14T15:25:45.371Z,17.92
2018-11-14T15:28:13.569Z,17.02
2018-11-14T15:30:41.845Z,16.70
2018-11-14T15:33:10.115Z,19.05
2018-11-14T15:35:38.835Z,21.33
2018-11-14T15:38:07.682Z,22.60
2018-11-14T15:40:36.380Z,19.70
2018-11-14T15:43:04.698Z,15.38
2018-11-14T15:45:34.203Z,20.00
2018-11-14T15:48:02.415Z,20.25
2018-11-14T15:50:31.430Z,16.95
2018-11-14T15:53:00.011Z,17.10
2018-11-14T15:55:28.393Z,18.30
2018-11-14T15:57:57.064Z,23.60
2018-11-14T16:00:28.407Z,18.48
2018-11-14T16:02:56.815Z,18.85
2018-11-14T16:05:26.167Z,17.62
2018-11-14T16:07:55.682Z,16.10
2018-11-14T16:10:24.958Z,15.85
2018-11-14T16:12:53.275Z,17.85
2018-11-14T16:15:24.053Z,19.55
2018-11-14T16:17:52.508Z,17.90
2018-11-14T16:20:22.131Z,17.73
2018-11-14T16:22:50.474Z,16.20
2018-11-14T16:25:20.011Z,16.80
2018-11-14T16:27:49.205Z,17.25
2018-11-14T16:30:19.412Z,17.35
2018-11-14T16:32:48.930Z,18.95
2018-11-14T16:35:17.263Z,20.02
2018-11-14T16:37:45.874Z,18.62
2018-11-14T16:40:15.748Z,19.80
2018-11-14T16:42:44.106Z,19.82
2018-11-14T16:45:13.190Z,17.70
2018-11-14T16:47:41.608Z,17.80
2018-11-14T16:50:11.505Z,18.25
2018-11-14T16:52:39.825Z,19.98
2018-11-14T16:55:09.386Z,19.82
2018-11-14T16:57:38.579Z,18.00
2018-11-14T17:00:09.736Z,22.15
2018-11-14T17:02:38.018Z,20.35
2018-11-14T17:05:06.268Z,24.40
2018-11-14T17:07:34.504Z,21.77
2018-11-14T17:10:02.782Z,20.55
2018-11-14T17:12:31.083Z,21.77
2018-11-14T17:14:59.513Z,21.40
2018-11-14T17:17:27.707Z,21.40
2018-11-14T17:19:55.982Z,20.02
2018-11-14T17:22:24.290Z,21.52
2018-11-14T17:24:52.707Z,20.30
2018-11-14T17:27:20.950Z,22.75
2018-11-14T17:29:49.252Z,21.12
2018-11-14T17:32:17.483Z,21.40
2018-11-14T17:34:45.751Z,19.95
2018-11-14T17:37:13.979Z,19.55
2018-11-14T17:39:42.327Z,19.67
2018-11-14T17:42:10.884Z,21.75
2018-11-14T17:44:38.821Z,18.92
2018-11-14T17:47:07.054Z,18.95
2018-11-14T17:49:35.312Z,21.10
2018-11-14T17:52:10.151Z,23.30
2018-11-14T17:54:38.400Z,21.20
2018-11-14T17:57:06.788Z,23.67
2018-11-14T17:59:35.045Z,22.25
2018-11-14T18:02:03.336Z,23.15
2018-11-14T18:04:31.605Z,22.82
2018-11-14T18:06:59.841Z,22.30
2018-11-14T18:09:28.095Z,20.97
2018-11-14T18:11:56.359Z,17.20
2018-11-14T18:14:24.636Z,17.60
2018-11-14T18:16:52.946Z,21.02
2018-11-14T18:19:21.291Z,19.40
2018-11-14T18:21:49.510Z,19.35
2018-11-14T18:24:17.787Z,21.20
2018-11-14T18:26:45.994Z,20.45
2018-11-14T18:29:14.206Z,19.35
2018-11-14T18:31:42.466Z,20.40
2018-11-14T18:34:10.680Z,19.70
2018-11-14T18:36:38.900Z,20.00
2018-11-14T18:39:10.194Z,20.60
2018-11-14T18:41:38.454Z,22.50
2018-11-14T18:44:06.713Z,18.87
2018-11-14T18:46:35.803Z,17.85
2018-11-14T18:49:04.036Z,17.90
2018-11-14T18:51:32.247Z,16.00
2018-11-14T18:54:00.494Z,17.32
2018-11-14T18:56:28.762Z,16.65
2018-11-14T18:58:56.966Z,17.02
2018-11-14T19:01:25.214Z,21.85
2018-11-14T19:03:53.414Z,21.40
2018-11-14T19:06:21.654Z,23.20
2018-11-14T19:08:50.193Z,20.75
2018-11-14T19:11:18.404Z,21.42
2018-11-14T19:13:46.623Z,22.30
2018-11-14T19:16:14.812Z,21.55
2018-11-14T19:18:43.157Z,18.85
2018-11-14T19:21:11.366Z,18.17
2018-11-14T19:23:39.671Z,17.87
2018-11-14T19:26:07.968Z,19.10
2018-11-14T19:28:36.382Z,20.43
2018-11-14T19:31:04.862Z,21.37
2018-11-14T19:33:33.151Z,23.47
2018-11-14T19:36:01.352Z,24.52
2018-11-14T19:38:29.567Z,19.10
2018-11-14T19:40:57.872Z,21.20
2018-11-14T19:43:26.143Z,19.67
2018-11-14T19:45:54.375Z,21.70
2018-11-14T19:48:22.611Z,22.20
2018-11-14T19:50:50.827Z,21.37
2018-11-14T19:53:19.062Z,21.75
2018-11-14T19:55:47.319Z,20.77
2018-11-14T19:58:15.630Z,20.60
2018-11-14T20:00:43.924Z,21.50
2018-11-14T20:03:12.179Z,19.67
2018-11-14T20:05:40.378Z,19.62
2018-11-14T20:08:08.659Z,22.00
2018-11-14T20:10:37.071Z,19.48
2018-11-14T20:13:05.260Z,21.52
2018-11-14T20:15:34.661Z,18.12
2018-11-14T20:18:02.987Z,19.10
2018-11-14T20:20:32.653Z,18.98
2018-11-14T20:23:01.033Z,21.65
2018-11-14T20:25:29.400Z,19.70
2018-11-14T20:27:57.640Z,20.15
2018-11-14T20:30:27.192Z,19.32
2018-11-14T20:32:56.619Z,17.90
2018-11-14T20:35:25.716Z,20.02
2018-11-14T20:37:53.957Z,19.55
2018-11-14T20:40:22.809Z,22.25
2018-11-14T20:42:53.686Z,19.70
2018-11-14T20:45:25.449Z,20.90
2018-11-14T20:47:53.678Z,19.70
2018-11-14T20:50:23.172Z,18.02
2018-11-14T20:52:53.253Z,18.50
2018-11-14T20:55:21.520Z,21.10
2018-11-14T20:57:49.781Z,20.90
2018-11-14T21:00:25.366Z,20.62
2018-11-14T21:02:53.737Z,20.72
2018-11-14T21:05:22.153Z,21.20
2018-11-14T21:07:50.483Z,20.23
2018-11-14T21:10:20.027Z,20.65
2018-11-14T21:12:48.963Z,21.35
2018-11-14T21:15:20.461Z,21.42
2018-11-14T21:17:49.374Z,18.17
2018-11-14T21:20:17.602Z,21.65
2018-11-14T21:22:45.852Z,21.00
2018-11-14T21:25:16.133Z,20.65
2018-11-14T21:27:45.355Z,22.95
2018-11-14T21:30:15.194Z,20.80
2018-11-14T21:32:43.643Z,20.45
2018-11-14T21:35:18.439Z,21.52
2018-11-14T21:37:47.990Z,19.67
2018-11-14T21:40:16.241Z,20.55
2018-11-14T21:42:44.494Z,19.67
2018-11-14T21:45:15.535Z,21.25
2018-11-14T21:47:49.055Z,21.10
2018-11-14T21:50:18.076Z,20.97
2018-11-14T21:52:46.889Z,26.17
2018-11-14T21:55:15.189Z,22.07
2018-11-14T21:57:43.444Z,23.83
2018-11-14T22:00:14.867Z,23.20
2018-11-14T22:02:44.837Z,22.05
2018-11-14T22:05:13.106Z,20.27
2018-11-14T22:07:41.358Z,21.90
2018-11-14T22:10:13.125Z,22.98
2018-11-14T22:12:41.991Z,21.52
2018-11-14T22:15:10.887Z,22.00
2018-11-14T22:17:39.862Z,21.55
2018-11-14T22:20:14.921Z,22.42
2018-11-14T22:22:43.932Z,23.70
2018-11-14T22:25:13.563Z,22.93
2018-11-14T22:27:41.971Z,24.45
2018-11-14T22:30:14.288Z,21.12
2018-11-14T22:32:42.623Z,22.60
2018-11-14T22:35:12.602Z,22.42
2018-11-14T22:37:41.041Z,22.65
2018-11-14T22:40:12.501Z,20.82
2018-11-14T22:42:40.767Z,22.80
2018-11-14T22:45:11.194Z,20.82
2018-11-14T22:47:40.091Z,21.45
2018-11-14T22:50:09.486Z,22.75
2018-11-14T22:52:38.186Z,22.07
2018-11-14T22:55:07.486Z,21.95
2018-11-14T22:57:35.965Z,22.62
2018-11-14T23:00:08.158Z,25.17
2018-11-14T23:02:36.458Z,20.25
2018-11-14T23:05:04.744Z,21.80
2018-11-14T23:07:33.005Z,23.47
2018-11-14T23:10:01.295Z,22.45
2018-11-14T23:12:29.511Z,27.48
2018-11-14T23:14:57.734Z,23.67
2018-11-14T23:17:25.988Z,20.48
2018-11-14T23:20:02.419Z,26.45
2018-11-14T23:22:30.756Z,25.25
2018-11-14T23:24:59.029Z,23.98
2018-11-14T23:27:27.270Z,23.20
2018-11-14T23:29:55.522Z,24.02
2018-11-14T23:32:23.826Z,25.02
2018-11-14T23:34:57.618Z,26.15
2018-11-14T23:37:25.837Z,22.55
2018-11-14T23:39:54.090Z,23.12
2018-11-14T23:42:22.342Z,22.42
2018-11-14T23:44:50.543Z,24.63
2018-11-14T23:47:18.915Z,25.17
2018-11-14T23:49:47.147Z,22.82
2018-11-14T23:52:15.375Z,24.20
2018-11-14T23:54:43.635Z,26.70
2018-11-14T23:57:11.899Z,23.87
2018-11-14T23:59:40.206Z,24.60
